sensor_id;sensor_type;location;lat;lon;timestamp;temperature;humidity
49218;DHT22;35045;51.194;7.268;2023-04-30T00:01:20;9.30;99.90
49218;DHT22;35045;51.194;7.268;2023-04-30T00:03:46;9.30;99.90
49218;DHT22;35045;51.194;7.268;2023-04-30T00:06:12;9.30;99.90
49218;DHT22;35045;51.194;7.268;2023-04-30T00:08:38;9.30;99.90
49218;DHT22;35045;51.194;7.268;2023-04-30T00:11:05;9.30;99.90
49218;DHT22;35045;51.194;7.268;2023-04-30T00:13:31;9.30;99.90
49218;DHT22;35045;51.194;7.268;2023-04-30T00:15:57;9.20;99.90
49218;DHT22;35045;51.194;7.268;2023-04-30T00:18:23;9.20;99.90
49218;DHT22;35045;51.194;7.268;2023-04-30T00:20:50;9.10;99.90
49218;DHT22;35045;51.194;7.268;2023-04-30T00:23:18;9.00;99.90
49218;DHT22;35045;51.194;7.268;2023-04-30T00:25:44;9.00;99.90
49218;DHT22;35045;51.194;7.268;2023-04-30T00:28:11;8.90;99.90
49218;DHT22;35045;51.194;7.268;2023-04-30T00:30:37;8.70;99.90
49218;DHT22;35045;51.194;7.268;2023-04-30T00:33:03;8.70;99.90
49218;DHT22;35045;51.194;7.268;2023-04-30T00:35:29;8.60;99.90
49218;DHT22;35045;51.194;7.268;2023-04-30T00:37:55;8.50;99.90
49218;DHT22;35045;51.194;7.268;2023-04-30T00:40:22;8.40;99.90
49218;DHT22;35045;51.194;7.268;2023-04-30T00:42:48;8.40;99.90
49218;DHT22;35045;51.194;7.268;2023-04-30T00:45:14;8.50;99.90
49218;DHT22;35045;51.194;7.268;2023-04-30T00:47:42;8.50;99.90
49218;DHT22;35045;51.194;7.268;2023-04-30T00:50:09;8.50;99.90
49218;DHT22;35045;51.194;7.268;2023-04-30T00:52:35;8.50;99.90
49218;DHT22;35045;51.194;7.268;2023-04-30T00:55:01;8.50;99.90
49218;DHT22;35045;51.194;7.268;2023-04-30T00:57:28;8.50;99.90
49218;DHT22;35045;51.194;7.268;2023-04-30T00:59:54;8.50;99.90
49218;DHT22;35045;51.194;7.268;2023-04-30T01:02:21;8.50;99.90
49218;DHT22;35045;51.194;7.268;2023-04-30T01:04:49;8.50;99.90
49218;DHT22;35045;51.194;7.268;2023-04-30T01:07:15;8.40;99.90
49218;DHT22;35045;51.194;7.268;2023-04-30T01:09:41;8.40;99.90
49218;DHT22;35045;51.194;7.268;2023-04-30T01:12:28;8.40;99.90
49218;DHT22;35045;51.194;7.268;2023-04-30T01:15:16;8.50;99.90
49218;DHT22;35045;51.194;7.268;2023-04-30T01:20:27;8.70;99.90
49218;DHT22;35045;51.194;7.268;2023-04-30T01:23:06;8.80;99.90
49218;DHT22;35045;51.194;7.268;2023-04-30T01:28:28;8.90;99.90
49218;DHT22;35045;51.194;7.268;2023-04-30T01:30:55;8.90;99.90
49218;DHT22;35045;51.194;7.268;2023-04-30T01:33:21;8.90;99.90
49218;DHT22;35045;51.194;7.268;2023-04-30T01:46:31;8.60;99.90
49218;DHT22;35045;51.194;7.268;2023-04-30T01:49:01;8.60;99.90
49218;DHT22;35045;51.194;7.268;2023-04-30T01:51:43;8.70;99.90
49218;DHT22;35045;51.194;7.268;2023-04-30T01:56:52;8.60;99.90
49218;DHT22;35045;51.194;7.268;2023-04-30T01:59:21;8.60;99.90
49218;DHT22;35045;51.194;7.268;2023-04-30T02:01:48;8.50;99.90
49218;DHT22;35045;51.194;7.268;2023-04-30T02:04:14;8.40;99.90
49218;DHT22;35045;51.194;7.268;2023-04-30T02:06:40;8.30;99.90
49218;DHT22;35045;51.194;7.268;2023-04-30T02:09:07;8.20;99.90
49218;DHT22;35045;51.194;7.268;2023-04-30T02:11:33;8.20;99.90
49218;DHT22;35045;51.194;7.268;2023-04-30T02:13:59;8.30;99.90
49218;DHT22;35045;51.194;7.268;2023-04-30T02:16:25;8.40;99.90
49218;DHT22;35045;51.194;7.268;2023-04-30T02:18:51;8.30;99.90
49218;DHT22;35045;51.194;7.268;2023-04-30T02:21:18;8.20;99.90
49218;DHT22;35045;51.194;7.268;2023-04-30T02:23:44;8.30;99.90
49218;DHT22;35045;51.194;7.268;2023-04-30T02:26:10;8.30;99.90
49218;DHT22;35045;51.194;7.268;2023-04-30T02:28:36;8.30;99.90
49218;DHT22;35045;51.194;7.268;2023-04-30T02:31:03;8.30;99.90
49218;DHT22;35045;51.194;7.268;2023-04-30T02:33:29;8.40;99.90
49218;DHT22;35045;51.194;7.268;2023-04-30T02:35:57;8.40;99.90
49218;DHT22;35045;51.194;7.268;2023-04-30T02:38:23;8.40;99.90
49218;DHT22;35045;51.194;7.268;2023-04-30T02:40:49;8.40;99.90
49218;DHT22;35045;51.194;7.268;2023-04-30T02:43:15;8.30;99.90
49218;DHT22;35045;51.194;7.268;2023-04-30T02:45:42;8.20;99.90
49218;DHT22;35045;51.194;7.268;2023-04-30T02:48:08;8.10;99.90
49218;DHT22;35045;51.194;7.268;2023-04-30T02:50:34;8.10;99.90
49218;DHT22;35045;51.194;7.268;2023-04-30T02:53:00;8.10;99.90
49218;DHT22;35045;51.194;7.268;2023-04-30T02:55:26;8.10;99.90
49218;DHT22;35045;51.194;7.268;2023-04-30T02:57:53;8.00;99.90
49218;DHT22;35045;51.194;7.268;2023-04-30T03:00:19;8.00;99.90
49218;DHT22;35045;51.194;7.268;2023-04-30T03:02:45;7.90;99.90
49218;DHT22;35045;51.194;7.268;2023-04-30T03:05:12;7.90;99.90
49218;DHT22;35045;51.194;7.268;2023-04-30T03:07:39;7.90;99.90
49218;DHT22;35045;51.194;7.268;2023-04-30T03:10:05;7.90;99.90
49218;DHT22;35045;51.194;7.268;2023-04-30T03:12:32;7.90;99.90
49218;DHT22;35045;51.194;7.268;2023-04-30T03:14:58;8.00;99.90
49218;DHT22;35045;51.194;7.268;2023-04-30T03:17:24;8.00;99.90
49218;DHT22;35045;51.194;7.268;2023-04-30T03:19:50;8.00;99.90
49218;DHT22;35045;51.194;7.268;2023-04-30T03:22:16;8.10;99.90
49218;DHT22;35045;51.194;7.268;2023-04-30T03:24:45;8.10;99.90
49218;DHT22;35045;51.194;7.268;2023-04-30T03:27:11;8.00;99.90
49218;DHT22;35045;51.194;7.268;2023-04-30T03:29:37;8.00;99.90
49218;DHT22;35045;51.194;7.268;2023-04-30T03:32:03;8.00;99.90
49218;DHT22;35045;51.194;7.268;2023-04-30T03:34:29;8.00;99.90
49218;DHT22;35045;51.194;7.268;2023-04-30T03:36:57;8.00;99.90
49218;DHT22;35045;51.194;7.268;2023-04-30T03:39:23;8.00;99.90
49218;DHT22;35045;51.194;7.268;2023-04-30T03:41:49;8.00;99.90
49218;DHT22;35045;51.194;7.268;2023-04-30T03:44:15;8.10;99.90
49218;DHT22;35045;51.194;7.268;2023-04-30T03:46:41;8.10;99.90
49218;DHT22;35045;51.194;7.268;2023-04-30T03:49:11;8.00;99.90
49218;DHT22;35045;51.194;7.268;2023-04-30T03:51:37;7.90;99.90
49218;DHT22;35045;51.194;7.268;2023-04-30T03:54:06;7.80;99.90
49218;DHT22;35045;51.194;7.268;2023-04-30T03:56:34;7.70;99.90
49218;DHT22;35045;51.194;7.268;2023-04-30T03:59:00;7.70;99.90
49218;DHT22;35045;51.194;7.268;2023-04-30T04:01:28;7.70;99.90
49218;DHT22;35045;51.194;7.268;2023-04-30T04:03:54;7.70;99.90
49218;DHT22;35045;51.194;7.268;2023-04-30T04:06:20;7.70;99.90
49218;DHT22;35045;51.194;7.268;2023-04-30T04:08:46;7.80;99.90
49218;DHT22;35045;51.194;7.268;2023-04-30T04:11:13;7.90;99.90
49218;DHT22;35045;51.194;7.268;2023-04-30T04:13:39;7.80;99.90
49218;DHT22;35045;51.194;7.268;2023-04-30T04:16:06;7.90;99.90
49218;DHT22;35045;51.194;7.268;2023-04-30T04:18:33;7.90;99.90
49218;DHT22;35045;51.194;7.268;2023-04-30T04:20:59;7.90;99.90
49218;DHT22;35045;51.194;7.268;2023-04-30T04:23:29;7.90;99.90
49218;DHT22;35045;51.194;7.268;2023-04-30T04:25:55;7.90;99.90
49218;DHT22;35045;51.194;7.268;2023-04-30T04:28:22;7.90;99.90
49218;DHT22;35045;51.194;7.268;2023-04-30T04:30:48;7.90;99.90
49218;DHT22;35045;51.194;7.268;2023-04-30T04:33:14;7.90;99.90
49218;DHT22;35045;51.194;7.268;2023-04-30T04:35:41;8.00;99.90
49218;DHT22;35045;51.194;7.268;2023-04-30T04:38:07;7.90;99.90
49218;DHT22;35045;51.194;7.268;2023-04-30T04:40:34;8.00;99.90
49218;DHT22;35045;51.194;7.268;2023-04-30T04:43:00;8.00;99.90
49218;DHT22;35045;51.194;7.268;2023-04-30T04:45:26;8.00;99.90
49218;DHT22;35045;51.194;7.268;2023-04-30T04:47:52;8.00;99.90
49218;DHT22;35045;51.194;7.268;2023-04-30T04:50:19;8.10;99.90
49218;DHT22;35045;51.194;7.268;2023-04-30T04:52:45;8.10;99.90
49218;DHT22;35045;51.194;7.268;2023-04-30T04:55:11;8.10;99.90
49218;DHT22;35045;51.194;7.268;2023-04-30T04:57:37;8.20;99.90
49218;DHT22;35045;51.194;7.268;2023-04-30T05:00:04;8.20;99.90
49218;DHT22;35045;51.194;7.268;2023-04-30T05:02:33;8.30;99.90
49218;DHT22;35045;51.194;7.268;2023-04-30T05:04:59;8.40;99.90
49218;DHT22;35045;51.194;7.268;2023-04-30T05:07:26;8.40;99.90
49218;DHT22;35045;51.194;7.268;2023-04-30T05:09:52;8.40;99.90
49218;DHT22;35045;51.194;7.268;2023-04-30T05:12:19;8.50;99.90
49218;DHT22;35045;51.194;7.268;2023-04-30T05:14:45;8.40;99.90
49218;DHT22;35045;51.194;7.268;2023-04-30T05:17:12;8.40;99.90
49218;DHT22;35045;51.194;7.268;2023-04-30T05:19:38;8.40;99.90
49218;DHT22;35045;51.194;7.268;2023-04-30T05:22:04;8.40;99.90
49218;DHT22;35045;51.194;7.268;2023-04-30T05:24:31;8.40;99.90
49218;DHT22;35045;51.194;7.268;2023-04-30T05:26:57;8.40;99.90
49218;DHT22;35045;51.194;7.268;2023-04-30T05:29:23;8.50;99.90
49218;DHT22;35045;51.194;7.268;2023-04-30T05:31:49;8.50;99.90
49218;DHT22;35045;51.194;7.268;2023-04-30T05:34:15;8.60;99.90
49218;DHT22;35045;51.194;7.268;2023-04-30T05:36:41;8.70;99.90
49218;DHT22;35045;51.194;7.268;2023-04-30T05:39:08;8.80;99.90
49218;DHT22;35045;51.194;7.268;2023-04-30T05:41:34;8.90;99.90
49218;DHT22;35045;51.194;7.268;2023-04-30T05:44:01;9.00;99.90
49218;DHT22;35045;51.194;7.268;2023-04-30T05:46:30;9.10;99.90
49218;DHT22;35045;51.194;7.268;2023-04-30T05:48:56;9.20;99.90
49218;DHT22;35045;51.194;7.268;2023-04-30T05:51:22;9.40;99.90
49218;DHT22;35045;51.194;7.268;2023-04-30T05:53:48;9.60;99.90
49218;DHT22;35045;51.194;7.268;2023-04-30T05:56:14;9.70;99.90
49218;DHT22;35045;51.194;7.268;2023-04-30T05:58:40;9.80;99.90
49218;DHT22;35045;51.194;7.268;2023-04-30T06:01:07;9.90;99.90
49218;DHT22;35045;51.194;7.268;2023-04-30T06:03:36;10.00;99.90
49218;DHT22;35045;51.194;7.268;2023-04-30T06:06:03;10.20;99.90
49218;DHT22;35045;51.194;7.268;2023-04-30T06:08:30;10.30;99.90
49218;DHT22;35045;51.194;7.268;2023-04-30T06:10:56;10.40;99.90
49218;DHT22;35045;51.194;7.268;2023-04-30T06:13:22;10.50;99.90
49218;DHT22;35045;51.194;7.268;2023-04-30T06:15:48;10.50;99.90
49218;DHT22;35045;51.194;7.268;2023-04-30T06:18:15;10.70;99.90
49218;DHT22;35045;51.194;7.268;2023-04-30T06:20:41;10.70;99.90
49218;DHT22;35045;51.194;7.268;2023-04-30T06:23:08;10.80;99.90
49218;DHT22;35045;51.194;7.268;2023-04-30T06:25:34;10.90;99.90
49218;DHT22;35045;51.194;7.268;2023-04-30T06:28:00;11.00;99.90
49218;DHT22;35045;51.194;7.268;2023-04-30T06:30:27;11.00;99.90
49218;DHT22;35045;51.194;7.268;2023-04-30T06:32:55;11.10;99.90
49218;DHT22;35045;51.194;7.268;2023-04-30T06:35:21;11.20;99.90
49218;DHT22;35045;51.194;7.268;2023-04-30T06:37:47;11.10;99.90
49218;DHT22;35045;51.194;7.268;2023-04-30T06:40:14;11.10;99.90
49218;DHT22;35045;51.194;7.268;2023-04-30T06:42:40;11.10;99.90
49218;DHT22;35045;51.194;7.268;2023-04-30T06:45:06;11.10;99.90
49218;DHT22;35045;51.194;7.268;2023-04-30T06:47:35;11.20;99.90
49218;DHT22;35045;51.194;7.268;2023-04-30T06:50:03;11.30;99.90
49218;DHT22;35045;51.194;7.268;2023-04-30T06:52:30;11.50;99.90
49218;DHT22;35045;51.194;7.268;2023-04-30T06:54:56;11.60;99.90
49218;DHT22;35045;51.194;7.268;2023-04-30T06:57:22;11.70;99.90
49218;DHT22;35045;51.194;7.268;2023-04-30T06:59:49;11.80;99.90
49218;DHT22;35045;51.194;7.268;2023-04-30T07:02:15;11.70;99.90
49218;DHT22;35045;51.194;7.268;2023-04-30T07:04:42;11.70;99.90
49218;DHT22;35045;51.194;7.268;2023-04-30T07:07:08;11.80;99.90
49218;DHT22;35045;51.194;7.268;2023-04-30T07:09:35;11.90;99.90
49218;DHT22;35045;51.194;7.268;2023-04-30T07:12:01;12.00;99.90
49218;DHT22;35045;51.194;7.268;2023-04-30T07:14:28;12.10;99.90
49218;DHT22;35045;51.194;7.268;2023-04-30T07:16:54;12.20;99.90
49218;DHT22;35045;51.194;7.268;2023-04-30T07:19:21;12.40;99.90
49218;DHT22;35045;51.194;7.268;2023-04-30T07:21:48;12.50;99.90
49218;DHT22;35045;51.194;7.268;2023-04-30T07:24:14;12.50;99.90
49218;DHT22;35045;51.194;7.268;2023-04-30T07:26:41;12.50;99.90
49218;DHT22;35045;51.194;7.268;2023-04-30T07:29:07;12.50;99.90
49218;DHT22;35045;51.194;7.268;2023-04-30T07:31:33;12.60;99.90
49218;DHT22;35045;51.194;7.268;2023-04-30T07:33:59;12.60;99.90
49218;DHT22;35045;51.194;7.268;2023-04-30T07:36:26;12.70;99.90
49218;DHT22;35045;51.194;7.268;2023-04-30T07:38:52;12.80;99.90
49218;DHT22;35045;51.194;7.268;2023-04-30T07:41:18;12.70;99.90
49218;DHT22;35045;51.194;7.268;2023-04-30T07:43:44;12.80;99.90
49218;DHT22;35045;51.194;7.268;2023-04-30T07:46:10;12.80;99.90
49218;DHT22;35045;51.194;7.268;2023-04-30T07:48:37;13.00;99.90
49218;DHT22;35045;51.194;7.268;2023-04-30T07:51:04;13.20;99.90
49218;DHT22;35045;51.194;7.268;2023-04-30T07:53:30;13.40;99.90
49218;DHT22;35045;51.194;7.268;2023-04-30T07:55:56;13.40;99.90
49218;DHT22;35045;51.194;7.268;2023-04-30T07:58:22;13.30;99.90
49218;DHT22;35045;51.194;7.268;2023-04-30T08:00:48;13.10;99.90
49218;DHT22;35045;51.194;7.268;2023-04-30T08:03:14;13.00;99.90
49218;DHT22;35045;51.194;7.268;2023-04-30T08:05:41;13.00;99.90
49218;DHT22;35045;51.194;7.268;2023-04-30T08:08:07;13.10;99.90
49218;DHT22;35045;51.194;7.268;2023-04-30T08:10:33;13.10;99.90
49218;DHT22;35045;51.194;7.268;2023-04-30T08:13:03;13.10;99.90
49218;DHT22;35045;51.194;7.268;2023-04-30T08:15:29;13.20;99.90
49218;DHT22;35045;51.194;7.268;2023-04-30T08:17:55;13.30;99.90
49218;DHT22;35045;51.194;7.268;2023-04-30T08:20:21;13.40;99.90
49218;DHT22;35045;51.194;7.268;2023-04-30T08:22:51;13.40;99.90
49218;DHT22;35045;51.194;7.268;2023-04-30T08:25:17;13.60;99.90
49218;DHT22;35045;51.194;7.268;2023-04-30T08:27:43;13.60;99.90
49218;DHT22;35045;51.194;7.268;2023-04-30T08:30:10;13.70;99.90
49218;DHT22;35045;51.194;7.268;2023-04-30T08:32:36;13.80;99.90
49218;DHT22;35045;51.194;7.268;2023-04-30T08:35:03;14.10;99.90
49218;DHT22;35045;51.194;7.268;2023-04-30T08:37:30;14.20;99.90
49218;DHT22;35045;51.194;7.268;2023-04-30T08:39:56;14.30;99.90
49218;DHT22;35045;51.194;7.268;2023-04-30T08:42:30;14.40;99.90
49218;DHT22;35045;51.194;7.268;2023-04-30T08:44:59;14.40;99.90
49218;DHT22;35045;51.194;7.268;2023-04-30T08:47:26;14.40;99.90
49218;DHT22;35045;51.194;7.268;2023-04-30T08:49:53;14.30;99.90
49218;DHT22;35045;51.194;7.268;2023-04-30T08:52:20;14.50;99.90
49218;DHT22;35045;51.194;7.268;2023-04-30T08:54:47;14.50;99.90
49218;DHT22;35045;51.194;7.268;2023-04-30T08:57:16;14.70;99.90
49218;DHT22;35045;51.194;7.268;2023-04-30T08:59:44;14.70;99.90
49218;DHT22;35045;51.194;7.268;2023-04-30T09:02:12;14.80;99.90
49218;DHT22;35045;51.194;7.268;2023-04-30T09:04:39;14.90;99.90
49218;DHT22;35045;51.194;7.268;2023-04-30T09:07:06;15.10;99.90
49218;DHT22;35045;51.194;7.268;2023-04-30T09:09:39;15.40;99.90
49218;DHT22;35045;51.194;7.268;2023-04-30T09:14:57;15.70;99.90
49218;DHT22;35045;51.194;7.268;2023-04-30T09:17:24;15.60;99.30
49218;DHT22;35045;51.194;7.268;2023-04-30T09:19:51;15.60;99.90
49218;DHT22;35045;51.194;7.268;2023-04-30T09:22:22;15.80;99.90
49218;DHT22;35045;51.194;7.268;2023-04-30T09:24:49;15.70;99.10
49218;DHT22;35045;51.194;7.268;2023-04-30T09:27:18;15.70;98.60
49218;DHT22;35045;51.194;7.268;2023-04-30T09:29:44;15.60;98.90
49218;DHT22;35045;51.194;7.268;2023-04-30T09:32:12;15.60;99.20
49218;DHT22;35045;51.194;7.268;2023-04-30T09:34:39;15.70;99.90
49218;DHT22;35045;51.194;7.268;2023-04-30T09:37:05;15.80;99.20
49218;DHT22;35045;51.194;7.268;2023-04-30T09:39:32;15.80;98.70
49218;DHT22;35045;51.194;7.268;2023-04-30T09:42:09;15.80;98.80
49218;DHT22;35045;51.194;7.268;2023-04-30T09:44:37;15.60;99.50
49218;DHT22;35045;51.194;7.268;2023-04-30T09:47:03;15.50;98.60
49218;DHT22;35045;51.194;7.268;2023-04-30T09:49:30;15.60;99.00
49218;DHT22;35045;51.194;7.268;2023-04-30T09:52:00;15.60;99.50
49218;DHT22;35045;51.194;7.268;2023-04-30T09:54:29;15.40;99.50
49218;DHT22;35045;51.194;7.268;2023-04-30T09:56:57;15.70;99.90
49218;DHT22;35045;51.194;7.268;2023-04-30T09:59:31;15.90;99.50
49218;DHT22;35045;51.194;7.268;2023-04-30T10:02:00;16.10;98.90
49218;DHT22;35045;51.194;7.268;2023-04-30T10:04:35;16.00;99.20
49218;DHT22;35045;51.194;7.268;2023-04-30T10:07:08;15.60;99.50
49218;DHT22;35045;51.194;7.268;2023-04-30T10:09:40;15.70;99.30
49218;DHT22;35045;51.194;7.268;2023-04-30T10:12:13;15.90;99.60
49218;DHT22;35045;51.194;7.268;2023-04-30T10:14:47;15.90;98.30
49218;DHT22;35045;51.194;7.268;2023-04-30T10:17:15;16.00;98.20
49218;DHT22;35045;51.194;7.268;2023-04-30T10:19:45;16.10;98.20
49218;DHT22;35045;51.194;7.268;2023-04-30T10:22:13;16.40;98.60
49218;DHT22;35045;51.194;7.268;2023-04-30T10:24:41;16.40;98.20
49218;DHT22;35045;51.194;7.268;2023-04-30T10:27:08;16.30;98.40
49218;DHT22;35045;51.194;7.268;2023-04-30T10:29:34;16.50;99.20
49218;DHT22;35045;51.194;7.268;2023-04-30T10:32:00;17.00;98.90
49218;DHT22;35045;51.194;7.268;2023-04-30T10:34:55;17.20;98.80
49218;DHT22;35045;51.194;7.268;2023-04-30T10:37:46;17.50;98.60
49218;DHT22;35045;51.194;7.268;2023-04-30T10:40:14;17.60;96.70
49218;DHT22;35045;51.194;7.268;2023-04-30T10:42:48;17.70;97.50
49218;DHT22;35045;51.194;7.268;2023-04-30T10:45:15;17.60;96.20
49218;DHT22;35045;51.194;7.268;2023-04-30T10:47:42;17.20;96.60
49218;DHT22;35045;51.194;7.268;2023-04-30T10:50:10;17.10;96.90
49218;DHT22;35045;51.194;7.268;2023-04-30T10:52:37;17.10;96.50
49218;DHT22;35045;51.194;7.268;2023-04-30T10:55:05;17.30;96.70
49218;DHT22;35045;51.194;7.268;2023-04-30T10:57:40;17.70;97.40
49218;DHT22;35045;51.194;7.268;2023-04-30T11:02:45;17.70;95.10
49218;DHT22;35045;51.194;7.268;2023-04-30T11:05:15;17.60;95.20
49218;DHT22;35045;51.194;7.268;2023-04-30T11:08:00;17.90;94.90
49218;DHT22;35045;51.194;7.268;2023-04-30T11:10:29;17.80;95.20
49218;DHT22;35045;51.194;7.268;2023-04-30T11:12:56;17.70;95.90
49218;DHT22;35045;51.194;7.268;2023-04-30T11:15:32;17.60;96.50
49218;DHT22;35045;51.194;7.268;2023-04-30T11:17:58;17.70;96.50
49218;DHT22;35045;51.194;7.268;2023-04-30T11:20:28;17.80;96.60
49218;DHT22;35045;51.194;7.268;2023-04-30T11:23:13;17.90;96.60
49218;DHT22;35045;51.194;7.268;2023-04-30T11:25:44;18.20;96.00
49218;DHT22;35045;51.194;7.268;2023-04-30T11:28:14;18.60;96.40
49218;DHT22;35045;51.194;7.268;2023-04-30T11:30:49;18.70;95.30
49218;DHT22;35045;51.194;7.268;2023-04-30T11:33:16;18.80;94.80
49218;DHT22;35045;51.194;7.268;2023-04-30T11:35:43;18.70;95.30
49218;DHT22;35045;51.194;7.268;2023-04-30T11:38:11;18.20;94.90
49218;DHT22;35045;51.194;7.268;2023-04-30T11:40:38;18.00;96.00
49218;DHT22;35045;51.194;7.268;2023-04-30T11:43:04;18.20;96.00
49218;DHT22;35045;51.194;7.268;2023-04-30T11:45:30;18.50;95.50
49218;DHT22;35045;51.194;7.268;2023-04-30T11:47:56;18.30;95.20
49218;DHT22;35045;51.194;7.268;2023-04-30T11:50:26;18.00;95.30
49218;DHT22;35045;51.194;7.268;2023-04-30T11:52:55;18.30;95.30
49218;DHT22;35045;51.194;7.268;2023-04-30T11:55:23;18.50;95.40
49218;DHT22;35045;51.194;7.268;2023-04-30T11:57:52;18.50;94.70
49218;DHT22;35045;51.194;7.268;2023-04-30T12:00:25;18.10;94.90
49218;DHT22;35045;51.194;7.268;2023-04-30T12:02:52;18.00;94.50
49218;DHT22;35045;51.194;7.268;2023-04-30T12:05:23;18.00;95.20
49218;DHT22;35045;51.194;7.268;2023-04-30T12:07:58;18.20;94.80
49218;DHT22;35045;51.194;7.268;2023-04-30T12:10:25;17.90;94.30
49218;DHT22;35045;51.194;7.268;2023-04-30T12:12:52;18.20;94.80
49218;DHT22;35045;51.194;7.268;2023-04-30T12:15:21;18.50;95.00
49218;DHT22;35045;51.194;7.268;2023-04-30T12:17:56;18.60;94.50
49218;DHT22;35045;51.194;7.268;2023-04-30T12:20:25;18.90;93.90
49218;DHT22;35045;51.194;7.268;2023-04-30T12:22:52;19.10;94.20
49218;DHT22;35045;51.194;7.268;2023-04-30T12:25:20;18.90;93.40
49218;DHT22;35045;51.194;7.268;2023-04-30T12:27:48;18.70;93.20
49218;DHT22;35045;51.194;7.268;2023-04-30T12:30:18;18.60;94.10
49218;DHT22;35045;51.194;7.268;2023-04-30T12:32:46;18.90;93.90
49218;DHT22;35045;51.194;7.268;2023-04-30T12:35:21;19.20;93.40
49218;DHT22;35045;51.194;7.268;2023-04-30T12:37:52;19.60;93.90
49218;DHT22;35045;51.194;7.268;2023-04-30T12:40:20;19.70;92.90
49218;DHT22;35045;51.194;7.268;2023-04-30T12:42:47;19.50;93.20
49218;DHT22;35045;51.194;7.268;2023-04-30T12:45:49;19.20;93.60
49218;DHT22;35045;51.194;7.268;2023-04-30T12:48:20;19.00;93.50
49218;DHT22;35045;51.194;7.268;2023-04-30T12:50:54;18.30;93.30
49218;DHT22;35045;51.194;7.268;2023-04-30T12:53:22;18.40;93.20
49218;DHT22;35045;51.194;7.268;2023-04-30T12:58:34;19.40;92.20
49218;DHT22;35045;51.194;7.268;2023-04-30T13:01:02;19.80;92.30
49218;DHT22;35045;51.194;7.268;2023-04-30T13:03:28;20.30;92.10
49218;DHT22;35045;51.194;7.268;2023-04-30T13:05:55;20.00;92.30
49218;DHT22;35045;51.194;7.268;2023-04-30T13:08:21;19.40;92.10
49218;DHT22;35045;51.194;7.268;2023-04-30T13:10:47;19.20;92.60
49218;DHT22;35045;51.194;7.268;2023-04-30T13:13:15;19.50;92.40
49218;DHT22;35045;51.194;7.268;2023-04-30T13:15:42;19.90;92.30
49218;DHT22;35045;51.194;7.268;2023-04-30T13:18:08;20.30;91.70
49218;DHT22;35045;51.194;7.268;2023-04-30T13:20:35;20.60;91.90
49218;DHT22;35045;51.194;7.268;2023-04-30T13:23:01;20.80;91.80
49218;DHT22;35045;51.194;7.268;2023-04-30T13:25:29;20.50;92.00
49218;DHT22;35045;51.194;7.268;2023-04-30T13:27:55;20.10;91.90
49218;DHT22;35045;51.194;7.268;2023-04-30T13:30:22;20.30;92.40
49218;DHT22;35045;51.194;7.268;2023-04-30T13:32:49;20.50;92.00
49218;DHT22;35045;51.194;7.268;2023-04-30T13:35:15;20.80;91.90
49218;DHT22;35045;51.194;7.268;2023-04-30T13:37:41;21.10;91.00
49218;DHT22;35045;51.194;7.268;2023-04-30T13:40:08;20.80;91.30
49218;DHT22;35045;51.194;7.268;2023-04-30T13:42:36;21.40;91.50
49218;DHT22;35045;51.194;7.268;2023-04-30T13:45:07;21.90;90.30
49218;DHT22;35045;51.194;7.268;2023-04-30T13:47:33;22.00;90.60
49218;DHT22;35045;51.194;7.268;2023-04-30T13:50:01;21.70;90.80
49218;DHT22;35045;51.194;7.268;2023-04-30T13:52:27;21.40;90.90
49218;DHT22;35045;51.194;7.268;2023-04-30T13:54:53;21.00;90.80
49218;DHT22;35045;51.194;7.268;2023-04-30T13:57:19;21.00;91.20
49218;DHT22;35045;51.194;7.268;2023-04-30T13:59:46;21.30;91.50
49218;DHT22;35045;51.194;7.268;2023-04-30T14:02:12;21.50;90.10
49218;DHT22;35045;51.194;7.268;2023-04-30T14:04:38;21.60;90.30
49218;DHT22;35045;51.194;7.268;2023-04-30T14:07:04;21.80;90.40
49218;DHT22;35045;51.194;7.268;2023-04-30T14:09:30;22.10;87.30
49218;DHT22;35045;51.194;7.268;2023-04-30T14:11:56;22.30;86.70
49218;DHT22;35045;51.194;7.268;2023-04-30T14:14:24;22.60;87.70
49218;DHT22;35045;51.194;7.268;2023-04-30T14:16:51;22.60;88.00
49218;DHT22;35045;51.194;7.268;2023-04-30T14:19:18;22.70;88.00
49218;DHT22;35045;51.194;7.268;2023-04-30T14:21:44;22.70;87.10
49218;DHT22;35045;51.194;7.268;2023-04-30T14:24:11;22.90;86.60
49218;DHT22;35045;51.194;7.268;2023-04-30T14:26:38;22.50;86.60
49218;DHT22;35045;51.194;7.268;2023-04-30T14:29:06;21.90;87.70
49218;DHT22;35045;51.194;7.268;2023-04-30T14:31:32;21.40;87.30
49218;DHT22;35045;51.194;7.268;2023-04-30T14:33:58;21.40;88.50
49218;DHT22;35045;51.194;7.268;2023-04-30T14:36:25;21.70;87.80
49218;DHT22;35045;51.194;7.268;2023-04-30T14:38:52;22.30;85.40
49218;DHT22;35045;51.194;7.268;2023-04-30T14:41:19;22.30;85.30
49218;DHT22;35045;51.194;7.268;2023-04-30T14:43:46;22.70;85.50
49218;DHT22;35045;51.194;7.268;2023-04-30T14:46:12;22.90;84.40
49218;DHT22;35045;51.194;7.268;2023-04-30T14:48:39;23.00;84.10
49218;DHT22;35045;51.194;7.268;2023-04-30T14:51:05;23.20;84.20
49218;DHT22;35045;51.194;7.268;2023-04-30T14:53:31;23.50;85.00
49218;DHT22;35045;51.194;7.268;2023-04-30T14:55:58;24.40;84.00
49218;DHT22;35045;51.194;7.268;2023-04-30T14:58:24;25.30;81.30
49218;DHT22;35045;51.194;7.268;2023-04-30T15:00:50;25.90;78.40
49218;DHT22;35045;51.194;7.268;2023-04-30T15:03:16;25.60;79.30
49218;DHT22;35045;51.194;7.268;2023-04-30T15:05:43;25.90;77.20
49218;DHT22;35045;51.194;7.268;2023-04-30T15:08:09;26.10;76.90
49218;DHT22;35045;51.194;7.268;2023-04-30T15:10:35;27.00;76.40
49218;DHT22;35045;51.194;7.268;2023-04-30T15:13:02;27.40;73.40
49218;DHT22;35045;51.194;7.268;2023-04-30T15:15:28;27.40;73.10
49218;DHT22;35045;51.194;7.268;2023-04-30T15:17:56;27.20;71.30
49218;DHT22;35045;51.194;7.268;2023-04-30T15:20:23;27.30;70.80
49218;DHT22;35045;51.194;7.268;2023-04-30T15:22:50;27.40;70.60
49218;DHT22;35045;51.194;7.268;2023-04-30T15:25:16;27.30;70.60
49218;DHT22;35045;51.194;7.268;2023-04-30T15:27:43;27.60;70.60
49218;DHT22;35045;51.194;7.268;2023-04-30T15:30:09;28.00;68.40
49218;DHT22;35045;51.194;7.268;2023-04-30T15:32:36;27.60;68.40
49218;DHT22;35045;51.194;7.268;2023-04-30T15:35:02;28.10;68.50
49218;DHT22;35045;51.194;7.268;2023-04-30T15:37:28;28.10;66.30
49218;DHT22;35045;51.194;7.268;2023-04-30T15:39:55;27.80;67.20
49218;DHT22;35045;51.194;7.268;2023-04-30T15:42:21;27.40;66.60
49218;DHT22;35045;51.194;7.268;2023-04-30T15:44:48;27.00;67.60
49218;DHT22;35045;51.194;7.268;2023-04-30T15:47:14;27.30;66.80
49218;DHT22;35045;51.194;7.268;2023-04-30T15:49:40;27.20;66.10
49218;DHT22;35045;51.194;7.268;2023-04-30T15:52:07;27.60;65.90
49218;DHT22;35045;51.194;7.268;2023-04-30T15:54:33;27.40;66.20
49218;DHT22;35045;51.194;7.268;2023-04-30T15:56:59;27.20;65.60
49218;DHT22;35045;51.194;7.268;2023-04-30T15:59:25;27.10;66.10
49218;DHT22;35045;51.194;7.268;2023-04-30T16:01:52;26.70;65.20
49218;DHT22;35045;51.194;7.268;2023-04-30T16:04:18;26.60;66.10
49218;DHT22;35045;51.194;7.268;2023-04-30T16:06:44;27.10;66.30